Aviation Digital Data Service (ADDS)

Output produced by METARs form (0440 UTC 03 September 2014)
found at http://www.aviationweather.gov/adds/metars/
 
KDCA 022325Z 0300/0324 22005KT P6SM VCTS BKN050CB BKN200 
     TEMPO 0300/0301 VRB15KT 5SM -TSRA OVC015CB 
     FM030200 28005KT P6SM SCT050 BKN200 
     FM030800 31005KT P6SM FEW050 SCT200 
     FM031600 36005KT P6SM FEW050 
     FM032200 07005KT P6SM FEW050